ELLX/LUX METAR and TAF weather

Enter ICAO airport designator
Station Type Date Time Source
ELLX METAR 2019/10/20 18:50 UTC NOAA

ELLX 201850Z 30005KT 210V010 5000 RA BR FEW001 SCT003 BKN055 13/13 Q1008 NOSIG


Station Type Date Time Source
ELLX Decoded METAR 2019/10/20 18:50 UTC NOAA

Luxembourg / Luxembourg, Luxembourg (ELLX) 49-37N 006-13E 379M
Oct 20, 2019 - 02:50 PM EDT / 2019.10.20 1850 UTC
Wind: from the WNW (300 degrees) at 6 MPH (5 KT) (direction variable):0
Visibility: 3 mile(s):0
Sky conditions: mostly cloudy
Weather: rain; mist
Temperature: 55 F (13 C)
Dew Point: 55 F (13 C)
Relative Humidity: 100%
Pressure (altimeter): 29.77 in. Hg (1008 hPa)
ob: ELLX 201850Z 30005KT 210V010 5000 RA BR FEW001 SCT003 BKN055 13/13 Q1008 NOSIG
cycle: 19

Station Type Date Time Source
ELLX TAF 2019/10/20 18:27 UTC NOAA

TAF ELLX 201700Z 2018/2124 16005KT 7000 -RA SCT006 BKN020
TEMPO 2018/2023 1500 RA BR SCT002 BKN005
TEMPO 2023/2107 0200 FG VV001
BECMG 2107/2109 22015G25KT 9999 SCT009 BKN015
BECMG 2113/2115 23008KT SCT020

Example: see airport list